createdAt,value
2023-05-25T00:00:20.916Z,9.16
2023-05-25T00:02:47.831Z,9.09
2023-05-25T00:05:14.906Z,9.10
2023-05-25T00:07:41.624Z,9.06
2023-05-25T00:10:08.989Z,8.99
2023-05-25T00:12:36.942Z,8.98
2023-05-25T00:15:05.473Z,8.88
2023-05-25T00:17:32.485Z,8.88
2023-05-25T00:20:08.183Z,8.87
2023-05-25T00:22:38.280Z,8.90
2023-05-25T00:25:06.444Z,8.94
2023-05-25T00:27:33.132Z,8.98
2023-05-25T00:29:59.943Z,8.96
2023-05-25T00:32:27.340Z,9.03
2023-05-25T00:34:54.715Z,8.89
2023-05-25T00:37:21.878Z,8.89
2023-05-25T00:39:48.584Z,8.90
2023-05-25T00:42:15.902Z,8.89
2023-05-25T00:44:42.786Z,8.81
2023-05-25T00:47:11.690Z,8.84
2023-05-25T00:49:38.612Z,8.85
2023-05-25T00:52:05.891Z,8.92
2023-05-25T00:54:33.693Z,8.93
2023-05-25T00:57:06.504Z,8.93
2023-05-25T00:59:41.478Z,8.99
2023-05-25T01:02:11.356Z,8.96
2023-05-25T01:04:45.374Z,8.98
2023-05-25T01:07:17.758Z,8.99
2023-05-25T01:09:45.072Z,9.02
2023-05-25T01:12:16.310Z,9.03
2023-05-25T01:14:43.700Z,9.02
2023-05-25T01:17:11.225Z,9.00
2023-05-25T01:19:41.010Z,8.97
2023-05-25T01:22:38.474Z,9.01
2023-05-25T01:25:14.918Z,9.00
2023-05-25T01:27:48.811Z,9.03
2023-05-25T01:30:19.512Z,9.01
2023-05-25T01:32:46.667Z,9.04
2023-05-25T01:35:14.937Z,9.07
2023-05-25T01:37:49.347Z,9.03
2023-05-25T01:40:16.304Z,9.09
2023-05-25T01:42:43.009Z,9.09
2023-05-25T01:45:11.860Z,9.02
2023-05-25T01:47:59.693Z,9.10
2023-05-25T01:50:29.563Z,9.09
2023-05-25T01:53:02.372Z,9.05
2023-05-25T01:55:32.723Z,9.01
2023-05-25T01:58:01.002Z,8.97
2023-05-25T02:00:31.838Z,8.88
2023-05-25T02:02:59.733Z,8.82
2023-05-25T02:05:27.955Z,8.83
2023-05-25T02:07:54.748Z,8.76
2023-05-25T02:10:21.602Z,8.90
2023-05-25T02:12:49.544Z,8.99
2023-05-25T02:15:16.669Z,8.93
2023-05-25T02:17:43.530Z,8.90
2023-05-25T02:20:11.752Z,8.93
2023-05-25T02:22:38.522Z,8.86
2023-05-25T02:25:09.070Z,8.85
2023-05-25T02:27:36.396Z,8.84
2023-05-25T02:30:03.321Z,8.91
2023-05-25T02:32:31.461Z,8.97
2023-05-25T02:34:58.305Z,9.02
2023-05-25T02:37:24.989Z,9.03
2023-05-25T02:39:51.997Z,9.00
2023-05-25T02:42:19.709Z,8.91
2023-05-25T02:44:48.726Z,8.91
2023-05-25T02:47:16.483Z,8.87
2023-05-25T02:49:43.323Z,8.83
2023-05-25T02:52:10.378Z,8.83
2023-05-25T02:54:37.252Z,8.82
2023-05-25T02:57:05.964Z,8.86
2023-05-25T02:59:32.850Z,8.83
2023-05-25T03:01:59.851Z,8.84
2023-05-25T03:04:26.662Z,8.84
2023-05-25T03:06:54.011Z,8.77
2023-05-25T03:09:21.594Z,8.78
2023-05-25T03:11:50.132Z,8.78
2023-05-25T03:14:19.591Z,8.75
2023-05-25T03:16:54.306Z,8.75
2023-05-25T03:19:22.870Z,8.80
2023-05-25T03:21:49.621Z,8.86
2023-05-25T03:24:19.163Z,8.84
2023-05-25T03:26:46.140Z,8.81
2023-05-25T03:29:13.694Z,8.78
2023-05-25T03:31:40.800Z,8.75
2023-05-25T03:34:08.017Z,8.66
2023-05-25T03:36:39.071Z,8.60
2023-05-25T03:39:07.195Z,8.47
2023-05-25T03:41:34.086Z,8.47
2023-05-25T03:44:00.853Z,8.43
2023-05-25T03:46:27.795Z,8.38
2023-05-25T03:48:57.248Z,8.38
2023-05-25T03:51:24.013Z,8.32
2023-05-25T03:53:50.770Z,8.37
2023-05-25T03:56:17.445Z,8.36
2023-05-25T03:58:44.159Z,8.43
2023-05-25T04:01:13.326Z,8.39
2023-05-25T04:03:40.166Z,8.38
2023-05-25T04:06:07.117Z,8.35
2023-05-25T04:08:34.140Z,8.25
2023-05-25T04:11:01.179Z,8.27
2023-05-25T04:13:28.326Z,8.32
2023-05-25T04:15:55.887Z,8.35
2023-05-25T04:18:26.890Z,8.46
2023-05-25T04:20:55.511Z,8.52
2023-05-25T04:23:23.246Z,8.61
2023-05-25T04:25:53.688Z,8.66
2023-05-25T04:28:20.621Z,8.74
2023-05-25T04:30:57.002Z,8.79
2023-05-25T04:33:53.082Z,8.86
2023-05-25T04:36:32.700Z,8.88
2023-05-25T04:39:04.522Z,8.89
2023-05-25T04:41:34.000Z,9.03
2023-05-25T04:44:09.774Z,9.07
2023-05-25T04:46:49.370Z,9.15
2023-05-25T04:49:26.701Z,9.25
2023-05-25T04:51:53.573Z,9.32
2023-05-25T04:54:20.362Z,9.47
2023-05-25T04:56:47.151Z,9.50
2023-05-25T04:59:14.413Z,9.53
2023-05-25T05:01:42.247Z,9.63
2023-05-25T05:04:12.203Z,9.75
2023-05-25T05:06:39.564Z,9.78
2023-05-25T05:09:07.386Z,9.79
2023-05-25T05:11:34.059Z,9.85
2023-05-25T05:14:00.868Z,9.93
2023-05-25T05:16:33.768Z,9.95
2023-05-25T05:19:01.711Z,10.06
2023-05-25T05:21:29.601Z,10.14
2023-05-25T05:23:56.885Z,10.16
2023-05-25T05:26:23.604Z,10.13
2023-05-25T05:28:52.615Z,10.24
2023-05-25T05:31:20.052Z,10.33
2023-05-25T05:33:47.307Z,10.35
2023-05-25T05:36:15.652Z,10.32
2023-05-25T05:38:42.637Z,10.37
2023-05-25T05:41:13.956Z,10.39
2023-05-25T05:43:43.320Z,10.50
2023-05-25T05:46:13.569Z,10.51
2023-05-25T05:48:41.507Z,10.52
2023-05-25T05:51:08.320Z,10.57
2023-05-25T05:53:35.601Z,10.63
2023-05-25T05:56:03.874Z,10.67
2023-05-25T05:58:32.594Z,10.72
2023-05-25T06:01:01.541Z,10.83
2023-05-25T06:03:28.895Z,10.86
2023-05-25T06:05:55.905Z,10.96
2023-05-25T06:08:22.853Z,10.99
2023-05-25T06:10:50.128Z,11.02
2023-05-25T06:13:16.835Z,11.09
2023-05-25T06:15:43.734Z,11.09
2023-05-25T06:18:16.266Z,11.20
2023-05-25T06:20:43.109Z,11.22
2023-05-25T06:23:12.450Z,11.29
2023-05-25T06:25:39.109Z,11.32
2023-05-25T06:28:06.139Z,11.46
2023-05-25T06:30:32.831Z,11.50
2023-05-25T06:33:01.295Z,11.54
2023-05-25T06:35:29.429Z,11.68
2023-05-25T06:37:57.242Z,11.83
2023-05-25T06:40:23.994Z,12.11
2023-05-25T06:42:50.791Z,12.51
2023-05-25T06:45:36.234Z,12.73
2023-05-25T06:48:03.082Z,12.71
2023-05-25T06:50:31.316Z,12.77
2023-05-25T06:53:00.352Z,12.80
2023-05-25T06:55:27.264Z,13.02
2023-05-25T06:57:53.997Z,13.08
2023-05-25T07:00:21.557Z,13.07
2023-05-25T07:02:48.329Z,13.26
2023-05-25T07:05:15.333Z,13.71
2023-05-25T07:07:42.053Z,14.16
2023-05-25T07:10:09.317Z,14.18
2023-05-25T07:12:35.994Z,14.37
2023-05-25T07:15:02.779Z,14.69
2023-05-25T07:17:29.449Z,14.73
2023-05-25T07:19:56.239Z,14.90
2023-05-25T07:22:23.768Z,15.07
2023-05-25T07:24:50.461Z,15.22
2023-05-25T07:27:17.594Z,15.00
2023-05-25T07:29:44.335Z,14.64
2023-05-25T07:32:11.216Z,14.34
2023-05-25T07:34:37.919Z,14.29
2023-05-25T07:37:04.807Z,14.12
2023-05-25T07:39:31.502Z,13.96
2023-05-25T07:41:58.182Z,13.91
2023-05-25T07:44:24.840Z,13.82
2023-05-25T07:46:51.604Z,13.73
2023-05-25T07:49:18.353Z,13.73
2023-05-25T07:51:45.830Z,13.65
2023-05-25T07:54:12.625Z,13.74
2023-05-25T07:56:39.600Z,13.91
2023-05-25T07:59:06.546Z,13.91
2023-05-25T08:01:33.330Z,14.06
2023-05-25T08:04:00.409Z,14.16
2023-05-25T08:06:27.477Z,14.22
2023-05-25T08:08:54.221Z,14.32
2023-05-25T08:11:25.130Z,14.37
2023-05-25T08:13:52.124Z,14.38
2023-05-25T08:16:19.221Z,14.32
2023-05-25T08:18:47.044Z,14.19
2023-05-25T08:21:14.687Z,14.32
2023-05-25T08:23:42.720Z,14.30
2023-05-25T08:26:29.076Z,14.29
2023-05-25T08:28:58.099Z,14.28
2023-05-25T08:31:24.866Z,14.31
2023-05-25T08:33:51.579Z,14.43
2023-05-25T08:36:18.235Z,14.57
2023-05-25T08:38:44.989Z,14.69
2023-05-25T08:41:13.268Z,14.73
2023-05-25T08:43:42.150Z,14.87
2023-05-25T08:46:09.735Z,15.21
2023-05-25T08:48:41.532Z,15.57
2023-05-25T08:51:11.755Z,15.84
2023-05-25T08:53:40.859Z,15.86
2023-05-25T08:56:14.235Z,15.46
2023-05-25T08:58:46.629Z,15.63
2023-05-25T09:01:18.356Z,16.23
2023-05-25T09:03:49.826Z,16.90
2023-05-25T09:06:17.523Z,17.18
2023-05-25T09:08:46.089Z,17.34
2023-05-25T09:11:17.058Z,17.77
2023-05-25T09:13:44.642Z,18.27
2023-05-25T09:16:11.656Z,17.93
2023-05-25T09:18:38.805Z,17.05
2023-05-25T09:21:05.666Z,16.46
2023-05-25T09:23:32.505Z,16.75
2023-05-25T09:26:01.196Z,17.25
2023-05-25T09:28:28.011Z,17.47
2023-05-25T09:30:55.296Z,17.14
2023-05-25T09:33:22.396Z,16.87
2023-05-25T09:35:49.371Z,16.85
2023-05-25T09:38:16.882Z,16.81
2023-05-25T09:40:44.916Z,16.59
2023-05-25T09:43:17.313Z,16.92
2023-05-25T09:45:49.171Z,17.07
2023-05-25T09:48:16.284Z,17.11
2023-05-25T09:50:43.327Z,17.27
2023-05-25T09:53:11.300Z,17.34
2023-05-25T09:55:51.994Z,17.34
2023-05-25T09:58:19.642Z,17.42
2023-05-25T10:00:46.762Z,17.40
2023-05-25T10:03:15.482Z,17.59
2023-05-25T10:05:42.316Z,18.25
2023-05-25T10:08:10.567Z,18.55
2023-05-25T10:10:39.109Z,18.45
2023-05-25T10:13:09.491Z,18.78
2023-05-25T10:15:40.139Z,18.62
2023-05-25T10:18:09.904Z,18.99
2023-05-25T10:20:38.106Z,18.42
2023-05-25T10:23:10.769Z,18.14
2023-05-25T10:25:44.716Z,18.17
2023-05-25T10:28:20.252Z,18.29
2023-05-25T10:30:47.922Z,18.20
2023-05-25T10:33:15.124Z,18.54
2023-05-25T10:36:01.557Z,18.68
2023-05-25T10:38:31.702Z,18.92
2023-05-25T10:40:59.909Z,18.66
2023-05-25T10:43:27.819Z,18.70
2023-05-25T10:45:56.904Z,18.94
2023-05-25T10:48:35.255Z,18.88
2023-05-25T10:51:01.931Z,18.68
2023-05-25T10:53:28.758Z,18.70
2023-05-25T10:55:58.357Z,19.20
2023-05-25T10:58:28.302Z,19.31
2023-05-25T11:01:12.732Z,19.48
2023-05-25T11:03:53.554Z,19.57
2023-05-25T11:06:40.498Z,19.62
2023-05-25T11:09:07.804Z,19.50
2023-05-25T11:11:43.750Z,19.26
2023-05-25T11:14:27.978Z,19.08
2023-05-25T11:17:14.839Z,19.84
2023-05-25T11:19:43.892Z,20.29
2023-05-25T11:22:23.004Z,20.66
2023-05-25T11:24:51.649Z,20.84
2023-05-25T11:27:26.988Z,20.51
2023-05-25T11:29:54.802Z,19.96
2023-05-25T11:32:22.726Z,19.48
2023-05-25T11:34:53.024Z,18.88
2023-05-25T11:37:21.459Z,19.00
2023-05-25T11:39:49.361Z,19.32
2023-05-25T11:42:17.746Z,19.57
2023-05-25T11:44:44.734Z,19.63
2023-05-25T11:47:18.669Z,19.84
2023-05-25T11:49:47.363Z,20.50
2023-05-25T11:52:15.601Z,21.49
2023-05-25T11:54:42.875Z,21.59
2023-05-25T11:57:26.226Z,21.02
2023-05-25T12:00:00.376Z,20.44
2023-05-25T12:02:27.271Z,19.93
2023-05-25T12:04:56.211Z,19.77
2023-05-25T12:07:23.751Z,19.63
2023-05-25T12:09:50.537Z,19.87
2023-05-25T12:12:17.457Z,20.59
2023-05-25T12:14:50.575Z,21.25
2023-05-25T12:17:18.983Z,21.63
2023-05-25T12:19:46.686Z,21.52
2023-05-25T12:22:14.184Z,21.04
2023-05-25T12:24:41.394Z,21.17
2023-05-25T12:27:22.721Z,20.97
2023-05-25T12:29:49.904Z,20.80
2023-05-25T12:32:16.939Z,20.62
2023-05-25T12:34:43.714Z,20.73
2023-05-25T12:37:21.859Z,20.50
2023-05-25T12:39:48.787Z,20.24
2023-05-25T12:42:17.011Z,19.91
2023-05-25T12:44:46.698Z,19.93
2023-05-25T12:47:20.341Z,19.89
2023-05-25T12:49:48.895Z,20.07
2023-05-25T12:52:35.261Z,20.23
2023-05-25T12:55:21.762Z,20.24
2023-05-25T12:57:52.736Z,20.15
2023-05-25T13:00:24.372Z,20.03
2023-05-25T13:02:51.992Z,20.09
2023-05-25T13:05:23.575Z,20.38
2023-05-25T13:07:51.482Z,21.25
2023-05-25T13:10:18.581Z,22.04
2023-05-25T13:12:47.555Z,22.59
2023-05-25T13:15:21.018Z,22.18
2023-05-25T13:17:49.270Z,21.66
2023-05-25T13:20:16.856Z,21.55
2023-05-25T13:22:45.184Z,21.80
2023-05-25T13:25:13.667Z,22.05
2023-05-25T13:27:46.074Z,22.18
2023-05-25T13:30:13.862Z,22.45
2023-05-25T13:32:41.999Z,22.49
2023-05-25T13:35:12.481Z,22.34
2023-05-25T13:37:39.176Z,22.31
2023-05-25T13:40:06.422Z,22.02
2023-05-25T13:42:33.110Z,21.75
2023-05-25T13:44:59.769Z,21.58
2023-05-25T13:47:26.581Z,21.28
2023-05-25T13:49:53.356Z,21.68
2023-05-25T13:52:20.149Z,22.33
2023-05-25T13:54:46.812Z,22.50
2023-05-25T13:57:13.552Z,22.70
2023-05-25T13:59:40.263Z,23.00
2023-05-25T14:02:07.741Z,23.14
2023-05-25T14:04:35.646Z,23.16
2023-05-25T14:07:02.834Z,22.83
2023-05-25T14:09:29.602Z,22.69
2023-05-25T14:11:56.289Z,21.70
2023-05-25T14:14:31.536Z,21.37
2023-05-25T14:17:00.399Z,21.05
2023-05-25T14:19:27.409Z,20.75
2023-05-25T14:22:08.134Z,20.72
2023-05-25T14:24:39.760Z,20.88
2023-05-25T14:27:09.216Z,21.50
2023-05-25T14:29:36.174Z,22.10
2023-05-25T14:32:03.076Z,22.71
2023-05-25T14:34:29.925Z,22.57
2023-05-25T14:36:56.722Z,22.30
2023-05-25T14:39:23.503Z,21.96
2023-05-25T14:41:50.331Z,21.63
2023-05-25T14:44:17.122Z,21.12
2023-05-25T14:46:43.920Z,20.81
2023-05-25T14:49:10.708Z,20.69
2023-05-25T14:51:38.198Z,20.81
2023-05-25T14:54:06.410Z,21.19
2023-05-25T14:56:33.454Z,21.76
2023-05-25T14:59:00.389Z,22.04
2023-05-25T15:01:29.411Z,21.77
2023-05-25T15:03:57.143Z,21.30
2023-05-25T15:06:24.132Z,20.98
2023-05-25T15:08:51.195Z,20.90
2023-05-25T15:11:18.406Z,20.84
2023-05-25T15:13:45.465Z,21.20
2023-05-25T15:16:16.718Z,21.28
2023-05-25T15:18:44.178Z,21.63
2023-05-25T15:21:10.955Z,21.88
2023-05-25T15:23:37.620Z,22.05
2023-05-25T15:26:04.888Z,21.73
2023-05-25T15:28:31.886Z,21.51
2023-05-25T15:31:02.290Z,21.44
2023-05-25T15:33:43.504Z,21.19
2023-05-25T15:36:14.992Z,20.83
2023-05-25T15:38:43.350Z,20.55
2023-05-25T15:41:11.470Z,20.55
2023-05-25T15:43:38.218Z,20.68
2023-05-25T15:46:04.973Z,20.89
2023-05-25T15:48:31.756Z,21.12
2023-05-25T15:50:58.455Z,21.21
2023-05-25T15:53:25.167Z,21.31
2023-05-25T15:55:51.926Z,21.30
2023-05-25T15:58:18.728Z,21.31
2023-05-25T16:00:45.433Z,21.20
2023-05-25T16:03:12.331Z,21.29
2023-05-25T16:05:39.062Z,21.38
2023-05-25T16:08:05.740Z,21.35
2023-05-25T16:10:32.501Z,21.36
2023-05-25T16:12:59.197Z,21.37
2023-05-25T16:15:26.176Z,21.22
2023-05-25T16:17:52.904Z,21.09
2023-05-25T16:20:19.702Z,20.75
2023-05-25T16:22:46.427Z,20.43
2023-05-25T16:25:13.132Z,20.38
2023-05-25T16:27:39.842Z,20.42
2023-05-25T16:30:07.250Z,20.50
2023-05-25T16:32:34.087Z,20.46
2023-05-25T16:35:01.393Z,20.45
2023-05-25T16:37:28.100Z,20.40
2023-05-25T16:39:54.862Z,20.40
2023-05-25T16:42:21.563Z,20.34
2023-05-25T16:44:48.297Z,20.26
2023-05-25T16:47:14.953Z,20.23
2023-05-25T16:49:41.649Z,20.16
2023-05-25T16:52:08.354Z,20.04
2023-05-25T16:54:35.024Z,20.04
2023-05-25T16:57:04.766Z,20.03
2023-05-25T16:59:31.503Z,19.93
2023-05-25T17:01:59.202Z,19.91
2023-05-25T17:04:25.941Z,19.83
2023-05-25T17:06:52.692Z,19.69
2023-05-25T17:09:19.416Z,19.65
2023-05-25T17:11:46.112Z,19.60
2023-05-25T17:14:12.853Z,19.54
2023-05-25T17:16:39.642Z,19.51
2023-05-25T17:19:06.413Z,19.43
2023-05-25T17:21:33.143Z,19.39
2023-05-25T17:23:59.841Z,19.32
2023-05-25T17:26:26.880Z,19.32
2023-05-25T17:28:53.589Z,19.23
2023-05-25T17:31:20.400Z,19.21
2023-05-25T17:33:47.072Z,19.15
2023-05-25T17:36:13.785Z,19.10
2023-05-25T17:38:41.184Z,19.06
2023-05-25T17:41:07.870Z,19.04
2023-05-25T17:43:34.517Z,18.99
2023-05-25T17:46:01.308Z,18.92
2023-05-25T17:48:28.072Z,18.84
2023-05-25T17:50:54.770Z,18.80
2023-05-25T17:53:21.541Z,18.79
2023-05-25T17:55:48.280Z,18.70
2023-05-25T17:58:14.968Z,18.65
2023-05-25T18:00:41.776Z,18.59
2023-05-25T18:03:08.704Z,18.50
2023-05-25T18:05:35.695Z,18.47
2023-05-25T18:08:02.424Z,18.41
2023-05-25T18:10:29.077Z,18.35
2023-05-25T18:12:55.798Z,18.27
2023-05-25T18:15:22.521Z,18.27
2023-05-25T18:17:49.256Z,18.17
2023-05-25T18:20:16.131Z,18.08
2023-05-25T18:22:43.986Z,18.05
2023-05-25T18:25:10.816Z,18.00
2023-05-25T18:27:37.550Z,17.88
2023-05-25T18:30:04.902Z,17.85
2023-05-25T18:32:31.695Z,17.81
2023-05-25T18:34:58.398Z,17.79
2023-05-25T18:37:25.093Z,17.74
2023-05-25T18:39:51.962Z,17.67
2023-05-25T18:42:18.690Z,17.63
2023-05-25T18:44:45.388Z,17.55
2023-05-25T18:47:12.270Z,17.44
2023-05-25T18:49:39.025Z,17.37
2023-05-25T18:52:08.175Z,17.31
2023-05-25T18:54:34.943Z,17.27
2023-05-25T18:57:03.061Z,17.26
2023-05-25T18:59:31.566Z,17.16
2023-05-25T19:01:58.343Z,17.07
2023-05-25T19:04:25.224Z,16.93
2023-05-25T19:06:51.904Z,16.88
2023-05-25T19:09:18.620Z,16.83
2023-05-25T19:11:45.382Z,16.75
2023-05-25T19:14:12.140Z,16.74
2023-05-25T19:16:38.837Z,16.64
2023-05-25T19:19:05.564Z,16.55
2023-05-25T19:21:33.319Z,16.43
2023-05-25T19:24:00.017Z,16.41
2023-05-25T19:26:27.572Z,16.36
2023-05-25T19:28:54.343Z,16.33
2023-05-25T19:31:22.431Z,16.29
2023-05-25T19:33:49.198Z,16.28
2023-05-25T19:36:16.174Z,16.19
2023-05-25T19:38:42.878Z,16.10
2023-05-25T19:41:09.691Z,16.08
2023-05-25T19:43:37.433Z,16.05
2023-05-25T19:46:04.415Z,15.95
2023-05-25T19:48:31.249Z,15.89
2023-05-25T19:50:57.976Z,15.86
2023-05-25T19:53:24.710Z,15.80
2023-05-25T19:55:51.642Z,15.69
2023-05-25T19:58:18.324Z,15.73
2023-05-25T20:00:45.061Z,15.67
2023-05-25T20:03:11.892Z,15.55
2023-05-25T20:05:39.050Z,15.51
2023-05-25T20:08:05.964Z,15.49
2023-05-25T20:10:38.697Z,15.48
2023-05-25T20:13:06.610Z,15.41
2023-05-25T20:15:33.334Z,15.40
2023-05-25T20:18:01.666Z,15.47
2023-05-25T20:20:28.389Z,15.37
2023-05-25T20:22:55.187Z,15.38
2023-05-25T20:25:21.853Z,15.34
2023-05-25T20:27:48.554Z,15.29
2023-05-25T20:30:17.026Z,15.24
2023-05-25T20:32:44.053Z,15.22
2023-05-25T20:35:10.881Z,15.15
2023-05-25T20:37:37.661Z,15.09
2023-05-25T20:40:06.596Z,15.06
2023-05-25T20:42:33.335Z,15.02
2023-05-25T20:45:00.002Z,14.99
2023-05-25T20:47:27.045Z,14.92
2023-05-25T20:49:53.871Z,14.91
2023-05-25T20:52:21.240Z,14.88
2023-05-25T20:54:48.309Z,14.78
2023-05-25T20:57:15.715Z,14.83
2023-05-25T20:59:42.418Z,14.79
2023-05-25T21:02:09.148Z,14.76
2023-05-25T21:04:35.839Z,14.69
2023-05-25T21:07:02.532Z,14.65
2023-05-25T21:09:29.232Z,14.65
2023-05-25T21:11:55.910Z,14.60
2023-05-25T21:14:22.645Z,14.60
2023-05-25T21:16:50.131Z,14.53
2023-05-25T21:19:17.317Z,14.48
2023-05-25T21:21:44.127Z,14.43
2023-05-25T21:24:11.018Z,14.37
2023-05-25T21:26:37.732Z,14.28
2023-05-25T21:29:04.457Z,14.28
2023-05-25T21:31:31.438Z,14.26
2023-05-25T21:33:59.947Z,14.22
2023-05-25T21:36:26.992Z,14.11
2023-05-25T21:38:53.686Z,14.02
2023-05-25T21:41:20.371Z,14.06
2023-05-25T21:43:47.087Z,14.00
2023-05-25T21:46:13.800Z,14.02
2023-05-25T21:48:40.477Z,14.02
2023-05-25T21:51:07.231Z,13.94
2023-05-25T21:53:33.919Z,13.87
2023-05-25T21:56:00.610Z,13.86
2023-05-25T21:58:27.301Z,13.86
2023-05-25T22:00:54.100Z,13.82
2023-05-25T22:03:20.862Z,13.80
2023-05-25T22:05:47.611Z,13.73
2023-05-25T22:08:14.316Z,13.67
2023-05-25T22:10:41.143Z,13.67
2023-05-25T22:13:07.947Z,13.62
2023-05-25T22:15:34.910Z,13.63
2023-05-25T22:18:01.987Z,13.61
2023-05-25T22:20:28.773Z,13.57
2023-05-25T22:22:55.535Z,13.58
2023-05-25T22:25:22.306Z,13.57
2023-05-25T22:27:49.054Z,13.48
2023-05-25T22:30:15.847Z,13.55
2023-05-25T22:32:42.618Z,13.57
2023-05-25T22:35:09.485Z,13.53
2023-05-25T22:37:36.177Z,13.52
2023-05-25T22:40:04.076Z,13.48
2023-05-25T22:42:30.997Z,13.50
2023-05-25T22:44:57.868Z,13.39
2023-05-25T22:47:24.616Z,13.43
2023-05-25T22:49:51.429Z,13.33
2023-05-25T22:52:18.153Z,13.31
2023-05-25T22:54:44.890Z,13.27
2023-05-25T22:57:11.739Z,13.23
2023-05-25T22:59:38.419Z,13.19
2023-05-25T23:02:05.557Z,13.16
2023-05-25T23:04:33.851Z,13.15
2023-05-25T23:07:00.606Z,13.08
2023-05-25T23:09:27.405Z,13.11
2023-05-25T23:11:54.185Z,13.11
2023-05-25T23:14:21.049Z,13.13
2023-05-25T23:16:50.549Z,13.08
2023-05-25T23:19:18.087Z,13.00
2023-05-25T23:21:44.849Z,13.01
2023-05-25T23:24:11.619Z,12.96
2023-05-25T23:26:38.264Z,12.88
2023-05-25T23:29:05.052Z,12.80
2023-05-25T23:31:31.878Z,12.73
2023-05-25T23:33:58.658Z,12.70
2023-05-25T23:36:28.421Z,12.65
2023-05-25T23:38:55.343Z,12.70
2023-05-25T23:41:22.159Z,12.65
2023-05-25T23:43:48.861Z,12.68
2023-05-25T23:46:16.401Z,12.63
2023-05-25T23:48:44.265Z,12.58
2023-05-25T23:51:11.163Z,12.45
2023-05-25T23:53:38.969Z,12.50
2023-05-25T23:56:05.895Z,12.51
2023-05-25T23:58:32.596Z,12.48
